sensor_id;sensor_type;location;lat;lon;timestamp;pressure;altitude;pressure_sealevel;temperature;humidity
58690;BME280;44470;53.206;-6.106;2023-06-22T00:00:27;101813.78;;;20.99;65.29
58690;BME280;44470;53.206;-6.106;2023-06-22T00:02:52;101807.53;;;20.99;65.45
58690;BME280;44470;53.206;-6.106;2023-06-22T00:05:18;101813.78;;;20.99;65.16
58690;BME280;44470;53.206;-6.106;2023-06-22T00:07:43;101816.47;;;20.98;65.11
58690;BME280;44470;53.206;-6.106;2023-06-22T00:10:08;101819.13;;;20.99;65.46
58690;BME280;44470;53.206;-6.106;2023-06-22T00:12:34;101823.59;;;20.99;65.16
58690;BME280;44470;53.206;-6.106;2023-06-22T00:14:59;101828.94;;;21.00;65.20
58690;BME280;44470;53.206;-6.106;2023-06-22T00:17:25;101819.13;;;20.99;65.47
58690;BME280;44470;53.206;-6.106;2023-06-22T00:19:50;101824.47;;;20.99;65.46
58690;BME280;44470;53.206;-6.106;2023-06-22T00:22:19;101819.13;;;20.99;65.28
58690;BME280;44470;53.206;-6.106;2023-06-22T00:24:53;101820.03;;;21.00;65.12
58690;BME280;44470;53.206;-6.106;2023-06-22T00:27:18;101819.13;;;20.99;65.31
58690;BME280;44470;53.206;-6.106;2023-06-22T00:29:44;101825.38;;;21.00;65.22
58690;BME280;44470;53.206;-6.106;2023-06-22T00:32:09;101821.78;;;20.99;65.04
58690;BME280;44470;53.206;-6.106;2023-06-22T00:34:34;101823.59;;;20.99;65.18
58690;BME280;44470;53.206;-6.106;2023-06-22T00:37:00;101834.31;;;20.99;64.92
58690;BME280;44470;53.206;-6.106;2023-06-22T00:39:25;101832.50;;;20.99;65.23
58690;BME280;44470;53.206;-6.106;2023-06-22T00:41:50;101832.50;;;20.99;65.10
58690;BME280;44470;53.206;-6.106;2023-06-22T00:44:16;101836.09;;;21.00;65.25
58690;BME280;44470;53.206;-6.106;2023-06-22T00:46:41;101829.81;;;20.99;65.13
58690;BME280;44470;53.206;-6.106;2023-06-22T00:49:07;101841.44;;;21.00;64.86
58690;BME280;44470;53.206;-6.106;2023-06-22T00:51:32;101833.41;;;20.98;64.81
58690;BME280;44470;53.206;-6.106;2023-06-22T00:53:58;101839.63;;;21.00;64.68
58690;BME280;44470;53.206;-6.106;2023-06-22T00:56:23;101835.19;;;20.99;64.74
58690;BME280;44470;53.206;-6.106;2023-06-22T00:58:49;101838.75;;;21.00;64.68
58690;BME280;44470;53.206;-6.106;2023-06-22T01:01:17;101838.75;;;21.00;64.70
58690;BME280;44470;53.206;-6.106;2023-06-22T01:03:43;101844.13;;;21.00;64.47
58690;BME280;44470;53.206;-6.106;2023-06-22T01:06:10;101840.53;;;20.99;64.67
58690;BME280;44470;53.206;-6.106;2023-06-22T01:11:41;101848.56;;;20.99;64.76
58690;BME280;44470;53.206;-6.106;2023-06-22T01:16:51;101852.13;;;21.01;64.17
58690;BME280;44470;53.206;-6.106;2023-06-22T01:19:20;101853.00;;;21.00;64.56
58690;BME280;44470;53.206;-6.106;2023-06-22T01:21:51;101851.25;;;20.96;64.45
58690;BME280;44470;53.206;-6.106;2023-06-22T01:24:22;101852.13;;;21.00;64.13
58690;BME280;44470;53.206;-6.106;2023-06-22T01:29:33;101861.94;;;20.99;64.36
58690;BME280;44470;53.206;-6.106;2023-06-22T01:31:59;101866.44;;;20.99;64.56
58690;BME280;44470;53.206;-6.106;2023-06-22T01:34:27;101873.56;;;21.00;64.31
58690;BME280;44470;53.206;-6.106;2023-06-22T01:36:54;101872.66;;;20.99;64.40
58690;BME280;44470;53.206;-6.106;2023-06-22T01:39:20;101880.69;;;20.99;64.28
58690;BME280;44470;53.206;-6.106;2023-06-22T01:41:47;101886.03;;;20.99;64.43
58690;BME280;44470;53.206;-6.106;2023-06-22T01:44:14;101888.72;;;20.99;64.00
58690;BME280;44470;53.206;-6.106;2023-06-22T01:46:41;101886.94;;;20.98;64.34
58690;BME280;44470;53.206;-6.106;2023-06-22T01:49:06;101894.97;;;20.98;64.00
58690;BME280;44470;53.206;-6.106;2023-06-22T01:51:32;101890.47;;;21.00;64.02
58690;BME280;44470;53.206;-6.106;2023-06-22T01:53:59;101896.72;;;20.99;64.03
58690;BME280;44470;53.206;-6.106;2023-06-22T01:56:24;101884.25;;;20.98;64.22
58690;BME280;44470;53.206;-6.106;2023-06-22T01:58:56;101897.63;;;21.00;64.18
58690;BME280;44470;53.206;-6.106;2023-06-22T02:01:24;101894.06;;;20.99;63.76
58690;BME280;44470;53.206;-6.106;2023-06-22T02:03:55;101894.97;;;21.00;63.84
58690;BME280;44470;53.206;-6.106;2023-06-22T02:06:27;101893.16;;;21.00;64.01
58690;BME280;44470;53.206;-6.106;2023-06-22T02:08:59;101888.72;;;20.99;63.69
58690;BME280;44470;53.206;-6.106;2023-06-22T02:11:26;101889.59;;;20.98;63.96
58690;BME280;44470;53.206;-6.106;2023-06-22T02:13:54;101885.16;;;20.99;63.84
58690;BME280;44470;53.206;-6.106;2023-06-22T02:16:20;101894.06;;;20.99;63.83
58690;BME280;44470;53.206;-6.106;2023-06-22T02:18:47;101889.59;;;21.00;63.59
58690;BME280;44470;53.206;-6.106;2023-06-22T02:21:13;101899.41;;;20.99;63.33
58690;BME280;44470;53.206;-6.106;2023-06-22T02:23:39;101899.41;;;20.99;63.61
58690;BME280;44470;53.206;-6.106;2023-06-22T02:26:04;101904.75;;;20.99;63.56
58690;BME280;44470;53.206;-6.106;2023-06-22T02:28:30;101904.75;;;20.99;63.53
58690;BME280;44470;53.206;-6.106;2023-06-22T02:30:55;101900.31;;;20.98;63.56
58690;BME280;44470;53.206;-6.106;2023-06-22T02:33:21;101902.09;;;20.99;63.40
58690;BME280;44470;53.206;-6.106;2023-06-22T02:35:46;101905.66;;;21.00;63.45
58690;BME280;44470;53.206;-6.106;2023-06-22T02:38:14;101898.53;;;20.99;63.54
58690;BME280;44470;53.206;-6.106;2023-06-22T02:40:39;101910.13;;;20.99;63.69
58690;BME280;44470;53.206;-6.106;2023-06-22T02:43:05;101898.53;;;20.97;63.41
58690;BME280;44470;53.206;-6.106;2023-06-22T02:45:30;101899.41;;;20.99;63.36
58690;BME280;44470;53.206;-6.106;2023-06-22T02:47:56;101904.75;;;20.99;63.24
58690;BME280;44470;53.206;-6.106;2023-06-22T02:50:22;101901.22;;;20.99;63.21
58690;BME280;44470;53.206;-6.106;2023-06-22T02:52:48;101904.75;;;20.99;63.40
58690;BME280;44470;53.206;-6.106;2023-06-22T02:55:13;101909.25;;;20.99;63.50
58690;BME280;44470;53.206;-6.106;2023-06-22T02:57:40;101903.91;;;20.99;63.39
58690;BME280;44470;53.206;-6.106;2023-06-22T03:00:09;101905.66;;;20.98;63.47
58690;BME280;44470;53.206;-6.106;2023-06-22T03:02:46;101907.44;;;20.99;63.07
58690;BME280;44470;53.206;-6.106;2023-06-22T03:05:12;101903.91;;;20.99;63.10
58690;BME280;44470;53.206;-6.106;2023-06-22T03:07:43;101909.25;;;20.99;63.45
58690;BME280;44470;53.206;-6.106;2023-06-22T03:10:09;101908.34;;;20.98;63.15
58690;BME280;44470;53.206;-6.106;2023-06-22T03:12:36;101910.13;;;20.99;63.26
58690;BME280;44470;53.206;-6.106;2023-06-22T03:15:01;101910.16;;;20.98;63.13
58690;BME280;44470;53.206;-6.106;2023-06-22T03:17:27;101908.34;;;20.98;63.15
58690;BME280;44470;53.206;-6.106;2023-06-22T03:19:52;101915.47;;;20.99;63.40
58690;BME280;44470;53.206;-6.106;2023-06-22T03:22:17;101909.25;;;20.99;63.44
58690;BME280;44470;53.206;-6.106;2023-06-22T03:24:43;101910.13;;;20.99;63.03
58690;BME280;44470;53.206;-6.106;2023-06-22T03:27:08;101911.03;;;20.98;63.11
58690;BME280;44470;53.206;-6.106;2023-06-22T03:29:34;101911.91;;;20.99;62.96
58690;BME280;44470;53.206;-6.106;2023-06-22T03:32:15;101912.78;;;20.99;63.15
58690;BME280;44470;53.206;-6.106;2023-06-22T03:34:41;101908.34;;;20.98;63.03
58690;BME280;44470;53.206;-6.106;2023-06-22T03:37:13;101914.59;;;20.99;62.80
58690;BME280;44470;53.206;-6.106;2023-06-22T03:39:40;101924.41;;;20.98;62.97
58690;BME280;44470;53.206;-6.106;2023-06-22T03:42:06;101918.16;;;20.99;62.93
58690;BME280;44470;53.206;-6.106;2023-06-22T03:44:32;101919.03;;;20.98;63.22
58690;BME280;44470;53.206;-6.106;2023-06-22T03:46:57;101921.72;;;20.98;63.12
58690;BME280;44470;53.206;-6.106;2023-06-22T03:49:23;101919.03;;;20.98;63.07
58690;BME280;44470;53.206;-6.106;2023-06-22T03:51:48;101916.38;;;20.98;63.12
58690;BME280;44470;53.206;-6.106;2023-06-22T03:54:13;101921.72;;;20.98;63.22
58690;BME280;44470;53.206;-6.106;2023-06-22T03:56:39;101927.06;;;20.98;63.19
58690;BME280;44470;53.206;-6.106;2023-06-22T03:59:04;101918.16;;;20.98;63.02
58690;BME280;44470;53.206;-6.106;2023-06-22T04:01:30;101929.78;;;20.97;63.04
58690;BME280;44470;53.206;-6.106;2023-06-22T04:03:55;101929.78;;;20.97;63.23
58690;BME280;44470;53.206;-6.106;2023-06-22T04:06:20;101927.06;;;20.98;62.89
58690;BME280;44470;53.206;-6.106;2023-06-22T04:08:47;101931.56;;;20.98;62.70
58690;BME280;44470;53.206;-6.106;2023-06-22T04:11:16;101933.31;;;20.97;63.01
58690;BME280;44470;53.206;-6.106;2023-06-22T04:13:43;101936.91;;;20.98;63.05
58690;BME280;44470;53.206;-6.106;2023-06-22T04:16:08;101940.47;;;20.98;62.95
58690;BME280;44470;53.206;-6.106;2023-06-22T04:18:33;101937.81;;;20.97;62.95
58690;BME280;44470;53.206;-6.106;2023-06-22T04:20:59;101944.03;;;20.97;62.98
58690;BME280;44470;53.206;-6.106;2023-06-22T04:23:24;101951.16;;;20.98;63.05
58690;BME280;44470;53.206;-6.106;2023-06-22T04:25:49;101944.03;;;20.97;63.04
58690;BME280;44470;53.206;-6.106;2023-06-22T04:28:16;101952.06;;;20.97;62.51
58690;BME280;44470;53.206;-6.106;2023-06-22T04:30:41;101953.84;;;20.98;63.09
58690;BME280;44470;53.206;-6.106;2023-06-22T04:33:14;101949.38;;;20.97;62.89
58690;BME280;44470;53.206;-6.106;2023-06-22T04:35:40;101956.50;;;20.98;62.49
58690;BME280;44470;53.206;-6.106;2023-06-22T04:38:08;101956.50;;;20.98;62.63
58690;BME280;44470;53.206;-6.106;2023-06-22T04:40:33;101955.63;;;20.98;62.70
58690;BME280;44470;53.206;-6.106;2023-06-22T04:42:59;101961.00;;;20.98;62.45
58690;BME280;44470;53.206;-6.106;2023-06-22T04:45:28;101954.72;;;20.97;62.79
58690;BME280;44470;53.206;-6.106;2023-06-22T04:47:54;101951.16;;;20.98;62.50
58690;BME280;44470;53.206;-6.106;2023-06-22T04:50:20;101952.06;;;20.97;62.58
58690;BME280;44470;53.206;-6.106;2023-06-22T04:52:47;101954.72;;;20.97;62.28
58690;BME280;44470;53.206;-6.106;2023-06-22T04:55:12;101956.53;;;20.97;62.47
58690;BME280;44470;53.206;-6.106;2023-06-22T04:57:38;101948.50;;;20.97;62.59
58690;BME280;44470;53.206;-6.106;2023-06-22T05:00:04;101954.72;;;20.97;62.30
58690;BME280;44470;53.206;-6.106;2023-06-22T05:02:42;101954.72;;;20.97;62.30
58690;BME280;44470;53.206;-6.106;2023-06-22T05:05:08;101949.38;;;20.97;62.36
58690;BME280;44470;53.206;-6.106;2023-06-22T05:07:34;101958.31;;;20.98;62.41
58690;BME280;44470;53.206;-6.106;2023-06-22T05:10:00;101954.72;;;20.97;62.25
58690;BME280;44470;53.206;-6.106;2023-06-22T05:12:27;101959.22;;;20.97;62.42
58690;BME280;44470;53.206;-6.106;2023-06-22T05:14:52;101970.78;;;20.97;62.43
58690;BME280;44470;53.206;-6.106;2023-06-22T05:17:18;101966.34;;;20.96;62.44
58690;BME280;44470;53.206;-6.106;2023-06-22T05:19:44;101966.34;;;20.98;62.45
58690;BME280;44470;53.206;-6.106;2023-06-22T05:22:14;101973.47;;;20.97;62.51
58690;BME280;44470;53.206;-6.106;2023-06-22T05:24:39;101971.69;;;20.96;62.20
58690;BME280;44470;53.206;-6.106;2023-06-22T05:27:05;101972.59;;;20.97;62.21
58690;BME280;44470;53.206;-6.106;2023-06-22T05:29:30;101967.25;;;20.97;62.65
58690;BME280;44470;53.206;-6.106;2023-06-22T05:31:56;101974.38;;;20.98;62.58
58690;BME280;44470;53.206;-6.106;2023-06-22T05:34:21;101969.91;;;20.97;62.53
58690;BME280;44470;53.206;-6.106;2023-06-22T05:36:46;101973.47;;;20.97;62.39
58690;BME280;44470;53.206;-6.106;2023-06-22T05:39:12;101978.81;;;20.97;62.59
58690;BME280;44470;53.206;-6.106;2023-06-22T05:41:41;101977.03;;;20.96;62.32
58690;BME280;44470;53.206;-6.106;2023-06-22T05:44:06;101977.94;;;20.97;62.63
58690;BME280;44470;53.206;-6.106;2023-06-22T05:46:32;101973.47;;;20.97;62.22
58690;BME280;44470;53.206;-6.106;2023-06-22T05:48:57;101965.44;;;20.97;62.25
58690;BME280;44470;53.206;-6.106;2023-06-22T05:51:23;101973.47;;;20.97;62.51
58690;BME280;44470;53.206;-6.106;2023-06-22T05:53:48;101975.28;;;20.97;62.33
58690;BME280;44470;53.206;-6.106;2023-06-22T05:56:15;101974.38;;;20.96;62.28
58690;BME280;44470;53.206;-6.106;2023-06-22T05:58:40;101976.16;;;20.97;62.54
58690;BME280;44470;53.206;-6.106;2023-06-22T06:01:06;101973.50;;;20.96;62.36
58690;BME280;44470;53.206;-6.106;2023-06-22T06:03:31;101984.19;;;20.97;62.41
58690;BME280;44470;53.206;-6.106;2023-06-22T06:05:56;101969.00;;;20.96;62.53
58690;BME280;44470;53.206;-6.106;2023-06-22T06:08:22;101969.00;;;20.96;62.75
58690;BME280;44470;53.206;-6.106;2023-06-22T06:10:47;101969.91;;;20.97;62.64
58690;BME280;44470;53.206;-6.106;2023-06-22T06:13:13;101971.69;;;20.98;62.75
58690;BME280;44470;53.206;-6.106;2023-06-22T06:15:38;101976.16;;;20.97;62.74
58690;BME280;44470;53.206;-6.106;2023-06-22T06:18:03;101973.47;;;20.97;62.64
58690;BME280;44470;53.206;-6.106;2023-06-22T06:20:30;101976.16;;;20.97;62.95
58690;BME280;44470;53.206;-6.106;2023-06-22T06:22:57;101975.28;;;20.97;62.78
58690;BME280;44470;53.206;-6.106;2023-06-22T06:25:22;101976.16;;;20.97;62.75
58690;BME280;44470;53.206;-6.106;2023-06-22T06:27:49;101973.47;;;20.97;62.63
58690;BME280;44470;53.206;-6.106;2023-06-22T06:30:15;101971.69;;;20.98;62.57
58690;BME280;44470;53.206;-6.106;2023-06-22T06:32:41;101969.91;;;20.98;62.64
58690;BME280;44470;53.206;-6.106;2023-06-22T06:35:08;101967.22;;;20.98;62.79
58690;BME280;44470;53.206;-6.106;2023-06-22T06:37:37;101968.13;;;20.97;62.96
58690;BME280;44470;53.206;-6.106;2023-06-22T06:40:06;101966.34;;;20.98;63.04
58690;BME280;44470;53.206;-6.106;2023-06-22T06:42:39;101968.13;;;20.97;62.91
58690;BME280;44470;53.206;-6.106;2023-06-22T06:45:09;101972.59;;;20.97;62.67
58690;BME280;44470;53.206;-6.106;2023-06-22T06:47:35;101976.16;;;20.97;63.19
58690;BME280;44470;53.206;-6.106;2023-06-22T06:50:00;101981.50;;;20.99;63.14
58690;BME280;44470;53.206;-6.106;2023-06-22T06:52:26;101983.28;;;20.98;62.95
58690;BME280;44470;53.206;-6.106;2023-06-22T06:54:53;101977.06;;;20.98;63.04
58690;BME280;44470;53.206;-6.106;2023-06-22T06:57:19;101985.97;;;20.98;63.16
58690;BME280;44470;53.206;-6.106;2023-06-22T06:59:45;101986.84;;;20.97;63.12
58690;BME280;44470;53.206;-6.106;2023-06-22T07:02:11;101989.53;;;20.97;63.40
58690;BME280;44470;53.206;-6.106;2023-06-22T07:04:36;101993.97;;;20.98;63.47
58690;BME280;44470;53.206;-6.106;2023-06-22T07:07:02;101993.09;;;20.98;63.55
58690;BME280;44470;53.206;-6.106;2023-06-22T07:09:28;101991.31;;;20.98;63.49
58690;BME280;44470;53.206;-6.106;2023-06-22T07:11:53;101993.09;;;20.98;63.34
58690;BME280;44470;53.206;-6.106;2023-06-22T07:14:19;101984.19;;;20.97;63.35
58690;BME280;44470;53.206;-6.106;2023-06-22T07:16:45;101985.97;;;20.98;63.46
58690;BME280;44470;53.206;-6.106;2023-06-22T07:19:13;101992.22;;;20.99;63.60
58690;BME280;44470;53.206;-6.106;2023-06-22T07:21:38;101993.97;;;20.98;63.69
58690;BME280;44470;53.206;-6.106;2023-06-22T07:24:05;101999.34;;;20.98;63.82
58690;BME280;44470;53.206;-6.106;2023-06-22T07:26:31;101995.75;;;20.99;63.82
58690;BME280;44470;53.206;-6.106;2023-06-22T07:28:56;101995.78;;;20.98;63.55
58690;BME280;44470;53.206;-6.106;2023-06-22T07:31:23;102002.91;;;20.99;63.63
58690;BME280;44470;53.206;-6.106;2023-06-22T07:33:49;101999.34;;;20.98;63.63
58690;BME280;44470;53.206;-6.106;2023-06-22T07:36:14;102005.59;;;20.99;63.53
58690;BME280;44470;53.206;-6.106;2023-06-22T07:38:39;102003.78;;;20.99;63.47
58690;BME280;44470;53.206;-6.106;2023-06-22T07:41:05;102013.59;;;21.00;63.30
58690;BME280;44470;53.206;-6.106;2023-06-22T07:43:31;102015.38;;;21.01;63.37
58690;BME280;44470;53.206;-6.106;2023-06-22T07:45:58;101997.56;;;20.94;63.55
58690;BME280;44470;53.206;-6.106;2023-06-22T07:48:24;102010.03;;;21.01;63.80
58690;BME280;44470;53.206;-6.106;2023-06-22T07:50:49;102016.28;;;21.00;64.12
58690;BME280;44470;53.206;-6.106;2023-06-22T07:53:15;102018.06;;;21.01;64.20
58690;BME280;44470;53.206;-6.106;2023-06-22T07:55:40;102019.84;;;21.02;64.14
58690;BME280;44470;53.206;-6.106;2023-06-22T07:58:05;102021.63;;;21.02;63.97
58690;BME280;44470;53.206;-6.106;2023-06-22T08:00:31;102022.53;;;21.04;64.35
58690;BME280;44470;53.206;-6.106;2023-06-22T08:02:58;102018.94;;;21.03;64.25
58690;BME280;44470;53.206;-6.106;2023-06-22T08:05:24;102019.84;;;21.04;64.37
58690;BME280;44470;53.206;-6.106;2023-06-22T08:07:49;102022.50;;;21.02;64.61
58690;BME280;44470;53.206;-6.106;2023-06-22T08:10:15;102027.88;;;21.02;64.60
58690;BME280;44470;53.206;-6.106;2023-06-22T08:12:40;102020.72;;;21.01;64.69
58690;BME280;44470;53.206;-6.106;2023-06-22T08:15:06;102024.28;;;21.03;64.81
58690;BME280;44470;53.206;-6.106;2023-06-22T08:17:32;102032.31;;;21.03;64.99
58690;BME280;44470;53.206;-6.106;2023-06-22T08:19:58;102024.28;;;21.03;64.76
58690;BME280;44470;53.206;-6.106;2023-06-22T08:22:23;102024.28;;;21.03;64.72
58690;BME280;44470;53.206;-6.106;2023-06-22T08:24:48;102018.06;;;21.03;64.62
58690;BME280;44470;53.206;-6.106;2023-06-22T08:27:14;102023.41;;;21.03;64.57
58690;BME280;44470;53.206;-6.106;2023-06-22T08:29:46;102013.59;;;21.02;64.93
58690;BME280;44470;53.206;-6.106;2023-06-22T08:32:12;102027.88;;;21.02;64.87
58690;BME280;44470;53.206;-6.106;2023-06-22T08:34:37;102027.88;;;21.02;64.56
58690;BME280;44470;53.206;-6.106;2023-06-22T08:37:07;102030.56;;;21.01;64.41
58690;BME280;44470;53.206;-6.106;2023-06-22T08:39:33;102038.56;;;21.02;64.44
58690;BME280;44470;53.206;-6.106;2023-06-22T08:41:59;102040.38;;;21.02;64.68
58690;BME280;44470;53.206;-6.106;2023-06-22T08:44:25;102042.16;;;21.01;64.83
58690;BME280;44470;53.206;-6.106;2023-06-22T08:46:50;102039.47;;;21.01;64.74
58690;BME280;44470;53.206;-6.106;2023-06-22T08:49:15;102038.56;;;21.02;64.65
58690;BME280;44470;53.206;-6.106;2023-06-22T08:51:41;102034.13;;;21.03;64.72
58690;BME280;44470;53.206;-6.106;2023-06-22T08:54:06;102035.91;;;21.01;64.52
58690;BME280;44470;53.206;-6.106;2023-06-22T08:56:32;102038.56;;;21.02;64.97
58690;BME280;44470;53.206;-6.106;2023-06-22T08:58:57;102038.56;;;21.02;64.83
58690;BME280;44470;53.206;-6.106;2023-06-22T09:01:22;102040.38;;;21.02;64.75
58690;BME280;44470;53.206;-6.106;2023-06-22T09:03:48;102042.16;;;21.01;64.97
58690;BME280;44470;53.206;-6.106;2023-06-22T09:06:19;102043.06;;;21.02;64.98
58690;BME280;44470;53.206;-6.106;2023-06-22T09:08:48;102041.25;;;21.02;64.76
58690;BME280;44470;53.206;-6.106;2023-06-22T09:11:14;102052.84;;;21.01;64.96
58690;BME280;44470;53.206;-6.106;2023-06-22T09:13:39;102049.28;;;21.02;64.69
58690;BME280;44470;53.206;-6.106;2023-06-22T09:16:05;102048.41;;;21.00;64.99
58690;BME280;44470;53.206;-6.106;2023-06-22T09:18:30;102047.50;;;21.03;64.88
58690;BME280;44470;53.206;-6.106;2023-06-22T09:20:56;102043.06;;;21.02;65.06
58690;BME280;44470;53.206;-6.106;2023-06-22T09:23:21;102045.72;;;21.02;65.20
58690;BME280;44470;53.206;-6.106;2023-06-22T09:25:47;102042.16;;;21.01;65.12
58690;BME280;44470;53.206;-6.106;2023-06-22T09:28:13;102043.94;;;21.02;64.99
58690;BME280;44470;53.206;-6.106;2023-06-22T09:30:39;102032.34;;;21.02;65.06
58690;BME280;44470;53.206;-6.106;2023-06-22T09:33:04;102038.56;;;21.02;65.10
58690;BME280;44470;53.206;-6.106;2023-06-22T09:35:29;102038.56;;;21.02;65.08
58690;BME280;44470;53.206;-6.106;2023-06-22T09:37:55;102033.25;;;21.01;65.23
58690;BME280;44470;53.206;-6.106;2023-06-22T09:40:20;102040.38;;;21.02;65.19
58690;BME280;44470;53.206;-6.106;2023-06-22T09:42:46;102040.38;;;21.02;65.25
58690;BME280;44470;53.206;-6.106;2023-06-22T09:45:11;102041.25;;;21.02;65.07
58690;BME280;44470;53.206;-6.106;2023-06-22T09:47:36;102042.16;;;21.03;64.98
58690;BME280;44470;53.206;-6.106;2023-06-22T09:50:02;102035.91;;;21.02;65.28
58690;BME280;44470;53.206;-6.106;2023-06-22T09:52:28;102045.72;;;21.02;64.99
58690;BME280;44470;53.206;-6.106;2023-06-22T09:54:53;102041.25;;;21.02;65.22
58690;BME280;44470;53.206;-6.106;2023-06-22T09:57:19;102043.94;;;21.02;65.11
58690;BME280;44470;53.206;-6.106;2023-06-22T09:59:44;102037.69;;;21.02;65.32
58690;BME280;44470;53.206;-6.106;2023-06-22T10:02:09;102038.56;;;21.02;65.39
58690;BME280;44470;53.206;-6.106;2023-06-22T10:04:35;102051.94;;;21.02;65.55
58690;BME280;44470;53.206;-6.106;2023-06-22T10:07:00;102045.72;;;21.02;65.35
58690;BME280;44470;53.206;-6.106;2023-06-22T10:09:26;102043.06;;;21.02;65.34
58690;BME280;44470;53.206;-6.106;2023-06-22T10:11:51;102055.53;;;21.03;65.36
58690;BME280;44470;53.206;-6.106;2023-06-22T10:14:17;102047.50;;;21.03;65.54
58690;BME280;44470;53.206;-6.106;2023-06-22T10:16:42;102056.41;;;21.03;65.45
58690;BME280;44470;53.206;-6.106;2023-06-22T10:19:07;102060.88;;;21.01;65.34
58690;BME280;44470;53.206;-6.106;2023-06-22T10:21:33;102059.97;;;21.02;65.25
58690;BME280;44470;53.206;-6.106;2023-06-22T10:23:59;102061.78;;;21.02;65.66
58690;BME280;44470;53.206;-6.106;2023-06-22T10:26:31;102055.53;;;21.01;65.59
58690;BME280;44470;53.206;-6.106;2023-06-22T10:28:56;102063.56;;;21.03;65.55
58690;BME280;44470;53.206;-6.106;2023-06-22T10:31:21;102059.97;;;21.02;65.52
58690;BME280;44470;53.206;-6.106;2023-06-22T10:33:47;102056.41;;;21.03;65.68
58690;BME280;44470;53.206;-6.106;2023-06-22T10:36:14;102056.41;;;21.03;65.47
58690;BME280;44470;53.206;-6.106;2023-06-22T10:38:40;102059.09;;;21.03;65.72
58690;BME280;44470;53.206;-6.106;2023-06-22T10:41:05;102070.69;;;21.02;65.65
58690;BME280;44470;53.206;-6.106;2023-06-22T10:43:31;102065.34;;;21.02;65.43
58690;BME280;44470;53.206;-6.106;2023-06-22T10:45:56;102063.56;;;21.01;65.71
58690;BME280;44470;53.206;-6.106;2023-06-22T10:48:21;102072.47;;;21.03;65.92
58690;BME280;44470;53.206;-6.106;2023-06-22T10:50:47;102067.13;;;21.03;65.83
58690;BME280;44470;53.206;-6.106;2023-06-22T10:53:12;102065.34;;;21.02;65.73
58690;BME280;44470;53.206;-6.106;2023-06-22T10:55:37;102068.03;;;21.04;66.00
58690;BME280;44470;53.206;-6.106;2023-06-22T10:58:03;102067.13;;;21.03;65.70
58690;BME280;44470;53.206;-6.106;2023-06-22T11:00:28;102066.25;;;21.03;65.90
58690;BME280;44470;53.206;-6.106;2023-06-22T11:02:54;102069.78;;;21.03;66.04
58690;BME280;44470;53.206;-6.106;2023-06-22T11:05:19;102073.38;;;21.04;65.79
58690;BME280;44470;53.206;-6.106;2023-06-22T11:07:44;102072.47;;;21.03;66.01
58690;BME280;44470;53.206;-6.106;2023-06-22T11:10:10;102071.59;;;21.03;65.92
58690;BME280;44470;53.206;-6.106;2023-06-22T11:12:36;102068.03;;;21.04;65.76
58690;BME280;44470;53.206;-6.106;2023-06-22T11:15:01;102077.81;;;21.03;65.72
58690;BME280;44470;53.206;-6.106;2023-06-22T11:17:26;102069.78;;;21.03;65.92
58690;BME280;44470;53.206;-6.106;2023-06-22T11:19:52;102074.25;;;21.04;65.87
58690;BME280;44470;53.206;-6.106;2023-06-22T11:22:17;102075.16;;;21.03;65.72
58690;BME280;44470;53.206;-6.106;2023-06-22T11:24:43;102083.19;;;21.03;65.99
58690;BME280;44470;53.206;-6.106;2023-06-22T11:27:08;102080.50;;;21.03;65.85
58690;BME280;44470;53.206;-6.106;2023-06-22T11:29:33;102076.03;;;21.02;66.00
58690;BME280;44470;53.206;-6.106;2023-06-22T11:32:14;102075.16;;;21.05;65.71
58690;BME280;44470;53.206;-6.106;2023-06-22T11:34:39;102078.72;;;21.04;65.70
58690;BME280;44470;53.206;-6.106;2023-06-22T11:37:05;102089.44;;;21.04;65.64
58690;BME280;44470;53.206;-6.106;2023-06-22T11:39:30;102075.16;;;21.03;65.70
58690;BME280;44470;53.206;-6.106;2023-06-22T11:41:56;102076.94;;;21.04;65.84
58690;BME280;44470;53.206;-6.106;2023-06-22T11:44:21;102071.56;;;21.04;65.90
58690;BME280;44470;53.206;-6.106;2023-06-22T11:46:46;102080.50;;;21.05;65.88
58690;BME280;44470;53.206;-6.106;2023-06-22T11:49:13;102079.59;;;21.04;65.93
58690;BME280;44470;53.206;-6.106;2023-06-22T11:51:38;102083.19;;;21.03;65.57
58690;BME280;44470;53.206;-6.106;2023-06-22T11:54:04;102084.97;;;21.04;65.93
58690;BME280;44470;53.206;-6.106;2023-06-22T11:56:29;102079.59;;;21.04;65.94
58690;BME280;44470;53.206;-6.106;2023-06-22T11:58:55;102077.81;;;21.03;65.86
58690;BME280;44470;53.206;-6.106;2023-06-22T12:01:20;102076.94;;;21.04;65.62
58690;BME280;44470;53.206;-6.106;2023-06-22T12:03:46;102077.81;;;21.03;65.46
58690;BME280;44470;53.206;-6.106;2023-06-22T12:06:11;102078.72;;;21.04;65.46
58690;BME280;44470;53.206;-6.106;2023-06-22T12:08:37;102074.25;;;21.04;65.35
58690;BME280;44470;53.206;-6.106;2023-06-22T12:11:02;102082.28;;;21.04;65.69
58690;BME280;44470;53.206;-6.106;2023-06-22T12:13:28;102084.97;;;21.04;65.27
58690;BME280;44470;53.206;-6.106;2023-06-22T12:15:53;102085.88;;;21.05;65.55
58690;BME280;44470;53.206;-6.106;2023-06-22T12:18:18;102089.44;;;21.07;65.48
58690;BME280;44470;53.206;-6.106;2023-06-22T12:20:46;102088.53;;;21.07;65.45
58690;BME280;44470;53.206;-6.106;2023-06-22T12:23:12;102088.53;;;21.05;65.30
58690;BME280;44470;53.206;-6.106;2023-06-22T12:25:37;102080.50;;;21.05;65.40
58690;BME280;44470;53.206;-6.106;2023-06-22T12:28:03;102085.84;;;21.07;65.61
58690;BME280;44470;53.206;-6.106;2023-06-22T12:30:29;102083.16;;;21.07;65.74
58690;BME280;44470;53.206;-6.106;2023-06-22T12:32:55;102081.41;;;21.07;65.67
58690;BME280;44470;53.206;-6.106;2023-06-22T12:35:20;102084.06;;;21.05;65.75
58690;BME280;44470;53.206;-6.106;2023-06-22T12:37:46;102088.53;;;21.07;65.84
58690;BME280;44470;53.206;-6.106;2023-06-22T12:40:11;102090.31;;;21.08;65.79
58690;BME280;44470;53.206;-6.106;2023-06-22T12:42:36;102084.94;;;21.08;65.82